»·PEaware :: DLH712 EDDF-RKSI

DLH712 :: EDDF-RKSI

FLIGHT INFORMATION

Flight Status: Arrived
Operator:
Lufthansa
More flights by this operator :: More flights under this callsign
Pilot: Anonymous 14085 (14085)
Aircraft: BOEING 747-400 (WINGLETS)
(B744)
More flights by this aircraft type
Origin: EDDF Frankfurt/Main
Germany
Destination: RKSI Incheon Intl
Republic of Korea
More flights between these airports :: More routes between these airports
Route: TOBA7S TOBAK N858 ERSIL UN858 ESOBU UN746 GUDOP UZ717 BODLA/K0900F330 Z717 KUNER B810 RONUN/N0486F330 L134 GARSO M990 VALGA M994 PIRUS/K0898F330 R367 TRAFA R492 ADISA R22 HMN B228 TODES R497 LONKA A822 SERNA/K0891S1005 Y520 POLHO B339 PIDOX V1 PAMDA A326 DONVO G597 AGAVO/N0493F330 Y644 GONAV
File this flight plan on PilotEdge
Remarks: PBN / A1B1C1D1L1O1S2 DOF / 171203 REG / N488SB EET / EDUU0007 EPWW0047 UMKK0111 EYVL0116 EVRR0121 EETT0147 ULLL0155 ULWW0229 ULKK0253 UUYY0312 USSS0345 USTR0401 UNNT0440 UNKL0529 UIII0605 ZMUB0656 ZBPE0745 ZYSH0839 ZSHA0852 RKRR0903 OPR / DLH RMK / TCAS SIMBRIEF
Altitude:
(Current/Filed)
33,000ft
Speed:
(Current/Filed)
487kts
Departed: 03-Dec-17 01:11 AM
Arrived: 03-Dec-17 10:28 AM
Distance/Time
Traveled:
4610nm/9:16
Distance/Time
To Go:
Arrived

Flight Plot

Page will automatically refresh every two minutes.

Flight plan parsing failed; only flown route is shown


Map Options




Map Legend


Flown Route
Filed Route
Departure Airport
Arrival Airport
Navaid (VOR, NDB)
Fix

Horizontal Profiles

Position Reports

Time Latitude Longitude Heading Altitude Ground
Speed
03-Dec-17 00:32 50.047761 8.564911 339 378ft 0kts
03-Dec-17 00:33 50.047761 8.564911 339 378ft 0kts
03-Dec-17 00:34 50.047761 8.564911 339 378ft 0kts
03-Dec-17 00:35 50.047761 8.564911 339 378ft 0kts
03-Dec-17 00:36 50.047761 8.564911 339 378ft 0kts
03-Dec-17 00:37 50.047761 8.564911 339 378ft 0kts
03-Dec-17 00:38 50.047761 8.564911 339 378ft 0kts
03-Dec-17 00:39 50.047761 8.564911 339 378ft 0kts
03-Dec-17 00:40 50.047761 8.564911 339 378ft 0kts
03-Dec-17 00:41 50.047761 8.564911 339 378ft 0kts
03-Dec-17 00:42 50.047761 8.564911 339 378ft 0kts
03-Dec-17 00:43 50.047761 8.564911 339 378ft 0kts
03-Dec-17 00:44 50.047761 8.564911 339 378ft 0kts
03-Dec-17 00:45 50.047761 8.564911 339 378ft 0kts
03-Dec-17 00:46 50.047761 8.564911 339 378ft 0kts
03-Dec-17 00:47 50.047761 8.564911 339 378ft 0kts
03-Dec-17 00:48 50.047655 8.564974 339 378ft 1kts
03-Dec-17 00:49 50.047280 8.565518 288 378ft 2kts
03-Dec-17 00:50 50.047291 8.566125 249 378ft 0kts
03-Dec-17 00:51 50.047291 8.566125 249 378ft 0kts
03-Dec-17 00:52 50.047291 8.566125 249 378ft 0kts
03-Dec-17 00:53 50.047291 8.566125 249 378ft 0kts
03-Dec-17 00:54 50.047291 8.566125 249 378ft 0kts
03-Dec-17 00:55 50.047291 8.566125 249 378ft 0kts
03-Dec-17 00:56 50.047291 8.566125 249 378ft 0kts
03-Dec-17 00:57 50.047291 8.566125 249 378ft 0kts
03-Dec-17 00:58 50.047291 8.566125 248 378ft 0kts
03-Dec-17 00:59 50.047291 8.566125 248 378ft 0kts
03-Dec-17 01:00 50.047187 8.565796 236 378ft 3kts
03-Dec-17 01:01 50.046519 8.563741 249 378ft 7kts
03-Dec-17 01:02 50.046088 8.561986 248 378ft 4kts
03-Dec-17 01:03 50.045736 8.560550 249 378ft 2kts
03-Dec-17 01:04 50.045063 8.559504 208 378ft 5kts
03-Dec-17 01:05 50.043562 8.559271 163 378ft 8kts
03-Dec-17 01:06 50.041947 8.557483 250 378ft 11kts
03-Dec-17 01:07 50.040775 8.552660 250 378ft 15kts
03-Dec-17 01:08 50.039262 8.546290 249 378ft 19kts
03-Dec-17 01:09 50.037180 8.538801 249 378ft 23kts
03-Dec-17 01:10 50.035040 8.530029 248 378ft 21kts
03-Dec-17 01:11 50.033642 8.525881 177 378ft 0kts
03-Dec-17 01:12 50.033642 8.525881 177 378ft 0kts
03-Dec-17 01:13 50.033642 8.525881 177 378ft 0kts
03-Dec-17 01:14 50.033642 8.525881 177 378ft 0kts
03-Dec-17 01:15 50.033390 8.525899 178 378ft 19kts
03-Dec-17 01:16 50.001748 8.526485 180 1087ft 141kts
03-Dec-17 01:17 49.957721 8.487096 221 1664ft 244kts
03-Dec-17 01:18 49.911781 8.423745 222 4338ft 251kts
03-Dec-17 01:19 49.878205 8.341768 274 6724ft 265kts
03-Dec-17 01:20 49.908684 8.237764 298 9098ft 281kts
03-Dec-17 01:21 49.973100 8.189212 8 11043ft 324kts
03-Dec-17 01:22 50.065013 8.245208 20 11996ft 393kts
03-Dec-17 01:23 50.158294 8.311830 19 14872ft 394kts
03-Dec-17 01:24 50.255903 8.379898 20 17862ft 388kts
03-Dec-17 01:25 50.344765 8.471996 40 20442ft 392kts
03-Dec-17 01:26 50.423943 8.589851 41 22475ft 399kts
03-Dec-17 01:27 50.507163 8.701477 39 24306ft 407kts
03-Dec-17 01:28 50.585287 8.816004 51 25753ft 420kts
03-Dec-17 01:29 50.637528 8.967697 61 27162ft 434kts
03-Dec-17 01:30 50.689214 9.127423 58 28579ft 443kts
03-Dec-17 01:31 50.746319 9.294621 60 30533ft 441kts
03-Dec-17 01:32 50.796379 9.457541 59 31827ft 446kts
03-Dec-17 01:33 50.848979 9.627106 57 32867ft 453kts
03-Dec-17 01:34 50.899907 9.791578 57 33158ft 473kts
03-Dec-17 01:35 50.952592 9.964037 57 33109ft 500kts
03-Dec-17 01:36 51.006359 10.141011 59 33086ft 525kts
03-Dec-17 01:37 51.061660 10.324727 58 33179ft 549kts
03-Dec-17 01:38 51.117670 10.524634 59 33226ft 536kts
03-Dec-17 01:39 51.172415 10.718132 57 33253ft 504kts
03-Dec-17 01:40 51.261136 10.865626 32 33233ft 457kts
03-Dec-17 01:41 51.362081 10.966435 32 33270ft 431kts
03-Dec-17 01:42 51.459687 11.076571 35 33264ft 434kts
03-Dec-17 01:43 51.556170 11.190306 34 33262ft 435kts
03-Dec-17 01:44 51.651845 11.306405 38 33261ft 435kts
03-Dec-17 01:45 51.742508 11.435132 40 33260ft 436kts
03-Dec-17 01:46 51.833384 11.564839 40 33257ft 436kts
03-Dec-17 01:47 51.916179 11.682042 41 33261ft 436kts
03-Dec-17 01:48 52.001119 11.802994 39 33259ft 436kts
03-Dec-17 01:49 52.097879 11.920639 35 33257ft 436kts
03-Dec-17 01:50 52.190018 12.027709 36 33267ft 436kts
03-Dec-17 01:51 52.286732 12.143841 36 33240ft 436kts
03-Dec-17 01:52 52.383300 12.261743 36 33237ft 436kts
03-Dec-17 01:53 52.476687 12.387372 40 33235ft 436kts
03-Dec-17 01:54 52.567151 12.515286 39 33233ft 436kts
03-Dec-17 01:55 52.658623 12.643417 39 33231ft 436kts
03-Dec-17 01:56 52.745088 12.765804 40 33235ft 436kts
03-Dec-17 01:57 52.835552 12.894464 40 33234ft 436kts
03-Dec-17 01:58 52.926314 13.023459 40 33232ft 436kts
03-Dec-17 01:59 53.016654 13.154899 46 33221ft 436kts
03-Dec-17 02:00 53.068437 13.334055 70 33230ft 445kts
03-Dec-17 02:01 53.100841 13.528540 68 33227ft 444kts
03-Dec-17 02:02 53.141422 13.717234 67 33243ft 444kts
03-Dec-17 02:03 53.178963 13.912669 68 33217ft 445kts
03-Dec-17 02:04 53.217283 14.107463 67 33213ft 444kts
03-Dec-17 02:05 53.255609 14.303059 68 33211ft 444kts
03-Dec-17 02:06 53.309326 14.484512 48 33213ft 437kts
03-Dec-17 02:07 53.391471 14.632651 45 33208ft 436kts
03-Dec-17 02:08 53.471888 14.780252 47 33212ft 437kts
03-Dec-17 02:09 53.551473 14.933162 47 33210ft 437kts
03-Dec-17 02:10 53.631232 15.087108 47 33208ft 437kts
03-Dec-17 02:11 53.710563 15.240666 47 33206ft 437kts
03-Dec-17 02:12 53.790247 15.395841 47 33204ft 437kts
03-Dec-17 02:13 53.869330 15.550853 47 33202ft 437kts
03-Dec-17 02:14 53.947249 15.704906 48 33207ft 437kts
03-Dec-17 02:15 54.025611 15.861930 48 33204ft 437kts
03-Dec-17 02:16 54.103708 16.018327 48 33204ft 437kts
03-Dec-17 02:17 54.182818 16.175033 47 33213ft 437kts
03-Dec-17 02:18 54.262691 16.335340 44 33090ft 461kts
03-Dec-17 02:19 54.344931 16.502883 44 33140ft 462kts
03-Dec-17 02:20 54.426762 16.671046 45 33156ft 464kts
03-Dec-17 02:21 54.509098 16.842512 45 33155ft 466kts
03-Dec-17 02:22 54.591026 17.013515 44 33155ft 467kts
03-Dec-17 02:23 54.673883 17.186904 44 33154ft 469kts
03-Dec-17 02:24 54.756501 17.361132 44 33153ft 471kts
03-Dec-17 02:25 54.839533 17.537574 44 33154ft 473kts
03-Dec-17 02:26 54.921813 17.713912 45 33151ft 475kts
03-Dec-17 02:27 55.004396 17.893331 45 33149ft 477kts
03-Dec-17 02:28 55.086415 18.071570 50 33148ft 460kts
03-Dec-17 02:29 55.167335 18.246400 53 33151ft 470kts
03-Dec-17 02:30 55.248874 18.425520 53 33152ft 472kts
03-Dec-17 02:31 55.341314 18.600425 46 33155ft 509kts
03-Dec-17 02:32 55.443095 18.777575 46 33154ft 519kts
03-Dec-17 02:33 55.543287 18.960186 47 33183ft 519kts
03-Dec-17 02:34 55.643114 19.142584 47 33113ft 519kts
03-Dec-17 02:35 55.741922 19.323966 47 33108ft 512kts
03-Dec-17 02:36 55.841458 19.508666 47 33105ft 519kts
03-Dec-17 02:37 55.940276 19.693387 48 33104ft 518kts
03-Dec-17 02:38 56.038892 19.880176 48 33105ft 518kts
03-Dec-17 02:39 56.137208 20.065912 48 33098ft 518kts
03-Dec-17 02:40 56.222099 20.271995 59 33074ft 515kts
03-Dec-17 02:41 56.297930 20.490519 58 33047ft 515kts
03-Dec-17 02:42 56.374766 20.702532 58 33003ft 498kts
03-Dec-17 02:43 56.452079 20.915698 58 33021ft 514kts
03-Dec-17 02:44 56.529051 21.133256 61 33021ft 514kts
03-Dec-17 02:45 56.598128 21.358173 63 33022ft 512kts
03-Dec-17 02:46 56.665832 21.585253 62 33022ft 512kts
03-Dec-17 02:47 56.732563 21.806944 63 33022ft 512kts
03-Dec-17 02:48 56.800336 22.034365 63 33019ft 511kts
03-Dec-17 02:49 56.867860 22.262305 63 32943ft 511kts
03-Dec-17 02:50 56.934815 22.491058 63 32943ft 511kts
03-Dec-17 02:51 56.999971 22.719019 64 33012ft 510kts
03-Dec-17 02:52 57.064998 22.949258 64 33045ft 510kts
03-Dec-17 02:53 57.129422 23.176684 64 33046ft 510kts
03-Dec-17 02:54 57.195298 23.407702 64 33046ft 510kts
03-Dec-17 02:55 57.259669 23.640119 64 33047ft 510kts
03-Dec-17 02:56 57.322690 23.872293 65 33046ft 510kts
03-Dec-17 02:57 57.385807 24.106268 65 33047ft 510kts
03-Dec-17 02:58 57.448604 24.340258 66 33048ft 507kts
03-Dec-17 02:59 57.510901 24.575433 66 33048ft 508kts
03-Dec-17 03:00 57.571921 24.809108 67 33048ft 508kts
03-Dec-17 03:01 57.633229 25.045753 66 33000ft 508kts
03-Dec-17 03:02 57.694140 25.282702 66 32995ft 509kts
03-Dec-17 03:03 57.754921 25.521702 66 32996ft 509kts
03-Dec-17 03:04 57.814688 25.759685 68 32996ft 509kts
03-Dec-17 03:05 57.876296 25.998361 64 32997ft 511kts
03-Dec-17 03:06 57.947796 26.229647 61 32997ft 513kts
03-Dec-17 03:07 58.019429 26.461407 62 32998ft 513kts
03-Dec-17 03:08 58.088974 26.694390 63 32998ft 512kts
03-Dec-17 03:09 58.158104 26.926496 63 32991ft 513kts
03-Dec-17 03:10 58.227669 27.161361 63 32981ft 513kts
03-Dec-17 03:11 58.295987 27.398327 63 32965ft 514kts
03-Dec-17 03:12 58.368159 27.633557 58 32966ft 516kts
03-Dec-17 03:13 58.447678 27.858072 58 32966ft 516kts
03-Dec-17 03:14 58.526812 28.085870 59 33010ft 516kts
03-Dec-17 03:15 58.604886 28.316475 59 33075ft 517kts
03-Dec-17 03:16 58.669598 28.509492 59 33077ft 517kts
03-Dec-17 03:17 58.758855 28.777848 60 33076ft 517kts
03-Dec-17 03:18 58.822876 28.973086 60 33051ft 518kts
03-Dec-17 03:19 58.911959 29.246383 60 32944ft 517kts
03-Dec-17 03:20 58.988116 29.482011 60 32944ft 517kts
03-Dec-17 03:21 59.050488 29.676812 61 32945ft 517kts
03-Dec-17 03:22 59.124509 29.911145 60 32936ft 517kts
03-Dec-17 03:23 59.200508 30.149394 60 32926ft 532kts
03-Dec-17 03:24 59.279581 30.403054 59 32948ft 561kts
03-Dec-17 03:25 59.372467 30.706186 60 32935ft 560kts
03-Dec-17 03:26 59.438367 30.924946 57 32936ft 560kts
03-Dec-17 03:27 59.517414 31.188404 57 32941ft 560kts
03-Dec-17 03:28 59.596361 31.453808 57 32944ft 561kts
03-Dec-17 03:29 59.665880 31.721569 68 32938ft 563kts
03-Dec-17 03:30 59.714123 32.017576 73 32936ft 563kts
03-Dec-17 03:31 59.761451 32.312563 70 32944ft 563kts
03-Dec-17 03:32 59.811738 32.605747 70 32946ft 564kts
03-Dec-17 03:33 59.861323 32.900238 71 32940ft 564kts
03-Dec-17 03:34 59.909703 33.195869 71 32943ft 564kts
03-Dec-17 03:35 59.957686 33.493127 71 32946ft 564kts
03-Dec-17 03:36 60.004280 33.785844 72 32940ft 564kts
03-Dec-17 03:37 60.050823 34.084877 72 32811ft 564kts
03-Dec-17 03:38 60.096781 34.384610 72 32811ft 564kts
03-Dec-17 03:39 60.142865 34.681981 72 32803ft 564kts
03-Dec-17 03:40 60.188330 34.983591 73 32802ft 564kts
03-Dec-17 03:41 60.231987 35.284675 73 32806ft 564kts
03-Dec-17 03:42 60.275153 35.587558 73 32808ft 564kts
03-Dec-17 03:43 60.317524 35.889679 74 32957ft 564kts
03-Dec-17 03:44 60.359403 36.195013 74 33074ft 564kts
03-Dec-17 03:45 60.400512 36.499448 74 33078ft 564kts
03-Dec-17 03:46 60.440922 36.804335 75 33073ft 564kts
03-Dec-17 03:47 60.480601 37.111366 75 33075ft 564kts
03-Dec-17 03:48 60.519617 37.418577 75 33078ft 564kts
03-Dec-17 03:49 60.557928 37.725530 76 33071ft 564kts
03-Dec-17 03:50 60.595514 38.034640 76 33075ft 564kts
03-Dec-17 03:51 60.632296 38.343541 76 33078ft 564kts
03-Dec-17 03:52 60.668428 38.652324 77 33081ft 564kts
03-Dec-17 03:53 60.703921 38.963425 77 33075ft 563kts
03-Dec-17 03:54 60.738602 39.275065 77 33078ft 563kts
03-Dec-17 03:55 60.772696 39.587112 77 33081ft 563kts
03-Dec-17 03:56 60.805891 39.898533 78 33075ft 563kts
03-Dec-17 03:57 60.838361 40.211883 78 33078ft 563kts
03-Dec-17 03:58 60.870193 40.525232 78 33081ft 563kts
03-Dec-17 03:59 60.901224 40.838502 79 33075ft 563kts
03-Dec-17 04:00 60.931491 41.153663 79 33078ft 563kts
03-Dec-17 04:01 60.961096 41.468696 79 33081ft 563kts
03-Dec-17 04:02 60.989519 41.778677 80 33075ft 563kts
03-Dec-17 04:03 61.017599 42.095355 80 33078ft 563kts
03-Dec-17 04:04 61.044974 42.412496 80 33081ft 563kts
03-Dec-17 04:05 61.071657 42.729346 81 33074ft 562kts
03-Dec-17 04:06 61.097547 43.047496 81 33078ft 562kts
03-Dec-17 04:07 61.123329 43.361087 80 33076ft 562kts
03-Dec-17 04:08 61.148609 43.678288 82 33075ft 562kts
03-Dec-17 04:09 61.172192 43.998353 82 33073ft 562kts
03-Dec-17 04:10 61.194878 44.317598 82 33076ft 562kts
03-Dec-17 04:11 61.217130 44.638202 82 33079ft 562kts
03-Dec-17 04:12 61.238411 44.956575 83 33073ft 562kts
03-Dec-17 04:13 61.258965 45.277202 83 33076ft 562kts
03-Dec-17 04:14 61.278911 45.599235 83 33079ft 562kts
03-Dec-17 04:15 61.297943 45.919133 84 33073ft 561kts
03-Dec-17 04:16 61.316215 46.240569 84 33076ft 561kts
03-Dec-17 04:17 61.333765 46.562139 84 33078ft 561kts
03-Dec-17 04:18 61.350662 46.884962 85 33073ft 561kts
03-Dec-17 04:19 61.366653 47.207280 85 33076ft 561kts
03-Dec-17 04:20 61.381911 47.530505 85 33078ft 561kts
03-Dec-17 04:21 61.396402 47.852059 86 33073ft 553kts
03-Dec-17 04:22 61.409914 48.170728 86 33075ft 553kts
03-Dec-17 04:23 61.424009 48.488163 84 33078ft 553kts
03-Dec-17 04:24 61.442523 48.806016 84 33073ft 553kts
03-Dec-17 04:25 61.460351 49.124593 84 33075ft 553kts
03-Dec-17 04:26 61.476663 49.443739 84 33078ft 553kts
03-Dec-17 04:27 61.492123 49.762671 85 33072ft 552kts
03-Dec-17 04:28 61.506954 50.082505 85 33075ft 552kts
03-Dec-17 04:29 61.521057 50.401571 85 33077ft 552kts
03-Dec-17 04:30 61.534478 50.721894 86 33072ft 552kts
03-Dec-17 04:31 61.547002 51.041713 86 33075ft 552kts
03-Dec-17 04:32 61.558810 51.362235 84 33073ft 558kts
03-Dec-17 04:33 61.570012 51.684027 85 33095ft 570kts
03-Dec-17 04:34 61.580500 52.009484 85 33076ft 560kts
03-Dec-17 04:35 61.590199 52.335889 85 33077ft 560kts
03-Dec-17 04:36 61.599126 52.661027 86 33079ft 560kts
03-Dec-17 04:37 61.607330 52.986870 86 32980ft 561kts
03-Dec-17 04:38 61.614707 53.313602 86 32942ft 561kts
03-Dec-17 04:39 61.621294 53.640121 86 32945ft 561kts
03-Dec-17 04:40 61.627142 53.966751 88 32933ft 565kts
03-Dec-17 04:41 61.632284 54.296308 87 32943ft 559kts
03-Dec-17 04:42 61.636572 54.624620 87 32945ft 562kts
03-Dec-17 04:43 61.639997 54.949926 88 32939ft 562kts
03-Dec-17 04:44 61.642754 55.279005 88 32942ft 563kts
03-Dec-17 04:45 61.644730 55.607801 88 32945ft 563kts
03-Dec-17 04:46 61.645907 55.934341 89 33071ft 564kts
03-Dec-17 04:47 61.646251 56.263860 89 33077ft 564kts
03-Dec-17 04:48 61.645795 56.594416 90 33085ft 577kts
03-Dec-17 04:49 61.644593 56.923478 90 33076ft 564kts
03-Dec-17 04:50 61.642622 57.253019 90 33077ft 565kts
03-Dec-17 04:51 61.639854 57.583447 90 33080ft 565kts
03-Dec-17 04:52 61.636256 57.911289 91 33074ft 565kts
03-Dec-17 04:53 61.631886 58.240830 91 33077ft 566kts
03-Dec-17 04:54 61.626732 58.570972 91 33080ft 566kts
03-Dec-17 04:55 61.620809 58.899902 92 33074ft 566kts
03-Dec-17 04:56 61.614039 59.230374 93 33069ft 571kts
03-Dec-17 04:57 61.606394 59.562229 93 33082ft 566kts
03-Dec-17 04:58 61.598055 59.891425 94 33153ft 567kts
03-Dec-17 04:59 61.588916 60.221744 94 33158ft 568kts
03-Dec-17 05:00 61.578967 60.552172 94 33161ft 568kts
03-Dec-17 05:01 61.568184 60.881369 95 33154ft 568kts
03-Dec-17 05:02 61.556623 61.212003 95 33158ft 569kts
03-Dec-17 05:03 61.544252 61.542727 95 33161ft 569kts
03-Dec-17 05:04 61.531202 61.868774 96 33167ft 573kts
03-Dec-17 05:05 61.517270 62.199178 96 33158ft 570kts
03-Dec-17 05:06 61.502454 62.529255 96 33161ft 571kts
03-Dec-17 05:07 61.486919 62.857206 97 33154ft 571kts
03-Dec-17 05:08 61.470635 63.186107 97 33157ft 571kts
03-Dec-17 05:09 61.453508 63.514970 97 33161ft 572kts
03-Dec-17 05:10 61.435443 63.844551 98 33154ft 572kts
03-Dec-17 05:11 61.416638 64.174699 98 33157ft 572kts
03-Dec-17 05:12 61.396953 64.504253 95 33158ft 571kts
03-Dec-17 05:13 61.376538 64.833327 96 33154ft 574kts
03-Dec-17 05:14 61.355386 65.162389 96 33158ft 574kts
03-Dec-17 05:15 61.333295 65.491253 96 33161ft 575kts
03-Dec-17 05:16 61.310354 65.820267 98 33155ft 575kts
03-Dec-17 05:17 61.286753 66.148663 98 33158ft 576kts
03-Dec-17 05:18 61.262276 66.476270 98 33174ft 576kts
03-Dec-17 05:19 61.237040 66.802982 101 33182ft 580kts
03-Dec-17 05:20 61.210930 67.131458 99 33185ft 577kts
03-Dec-17 05:21 61.183975 67.458619 100 33188ft 578kts
03-Dec-17 05:22 61.156275 67.784615 101 33181ft 578kts
03-Dec-17 05:23 61.127775 68.111691 101 33184ft 578kts
03-Dec-17 05:24 61.098362 68.438234 102 33187ft 578kts
03-Dec-17 05:25 61.068130 68.763647 103 33179ft 578kts
03-Dec-17 05:26 61.036855 69.087689 106 33178ft 577kts
03-Dec-17 05:27 60.970388 69.381462 129 33189ft 562kts
03-Dec-17 05:28 60.883945 69.640649 128 33190ft 564kts
03-Dec-17 05:29 60.803030 69.914616 124 33181ft 567kts
03-Dec-17 05:30 60.721222 70.189287 127 33184ft 566kts
03-Dec-17 05:31 60.637500 70.461237 120 33180ft 570kts
03-Dec-17 05:32 60.591622 70.769883 99 33181ft 577kts
03-Dec-17 05:33 60.572333 71.038105 98 33182ft 576kts
03-Dec-17 05:34 60.537408 71.410778 102 33187ft 575kts
03-Dec-17 05:35 60.503104 71.721180 102 33098ft 575kts
03-Dec-17 05:36 60.468404 72.036394 102 33102ft 574kts
03-Dec-17 05:37 60.439352 72.298508 101 33105ft 573kts
03-Dec-17 05:38 60.398039 72.660769 102 33107ft 572kts
03-Dec-17 05:39 60.367744 72.920823 102 33102ft 571kts
03-Dec-17 05:40 60.330750 73.232202 102 33105ft 570kts
03-Dec-17 05:41 60.293042 73.541765 101 33108ft 569kts
03-Dec-17 05:42 60.254789 73.849630 102 33102ft 568kts
03-Dec-17 05:43 60.215960 74.156716 103 33106ft 566kts
03-Dec-17 05:44 60.176562 74.460944 103 33117ft 562kts
03-Dec-17 05:45 60.136580 74.763247 103 33129ft 561kts
03-Dec-17 05:46 60.096239 75.063723 103 33133ft 560kts
03-Dec-17 05:47 60.055021 75.364300 103 33135ft 558kts
03-Dec-17 05:48 60.013409 75.661305 104 33137ft 557kts
03-Dec-17 05:49 59.971124 75.958838 104 33133ft 556kts
03-Dec-17 05:50 59.928374 76.254016 104 33135ft 555kts
03-Dec-17 05:51 59.884787 76.547289 104 33129ft 554kts
03-Dec-17 05:52 59.839569 76.838591 105 33124ft 552kts
03-Dec-17 05:53 59.794991 77.128556 104 33126ft 551kts
03-Dec-17 05:54 59.750057 77.418477 104 33129ft 550kts
03-Dec-17 05:55 59.704436 77.707079 105 33125ft 549kts
03-Dec-17 05:56 59.658391 77.994192 105 33127ft 548kts
03-Dec-17 05:57 59.611964 78.278829 105 33129ft 546kts
03-Dec-17 05:58 59.564749 78.562803 105 33131ft 545kts
03-Dec-17 05:59 59.518020 78.839449 105 33110ft 508kts
03-Dec-17 06:00 59.472656 79.105824 105 33129ft 516kts
03-Dec-17 06:01 59.426442 79.372397 105 33130ft 515kts
03-Dec-17 06:02 59.379725 79.637170 105 33131ft 515kts
03-Dec-17 06:03 59.332521 79.901896 106 33130ft 515kts
03-Dec-17 06:04 59.284869 80.165653 106 33138ft 509kts
03-Dec-17 06:05 59.237032 80.425905 106 33132ft 515kts
03-Dec-17 06:06 59.188541 80.686018 107 33131ft 515kts
03-Dec-17 06:07 59.139170 80.948210 107 33132ft 514kts
03-Dec-17 06:08 59.089696 81.207424 107 33132ft 514kts
03-Dec-17 06:09 59.039399 81.466558 107 33133ft 514kts
03-Dec-17 06:10 58.989326 81.721186 108 33133ft 514kts
03-Dec-17 06:11 58.938221 81.979051 108 33133ft 514kts
03-Dec-17 06:12 58.887123 82.232433 108 33292ft 513kts
03-Dec-17 06:13 58.833530 82.487635 108 33495ft 513kts
03-Dec-17 06:14 58.780604 82.741237 109 33504ft 513kts
03-Dec-17 06:15 58.727534 82.996407 109 33505ft 512kts
03-Dec-17 06:16 58.674057 83.249260 109 33506ft 512kts
03-Dec-17 06:17 58.619773 83.501930 109 33507ft 512kts
03-Dec-17 06:18 58.565228 83.752959 109 33506ft 512kts
03-Dec-17 06:19 58.510713 84.002156 109 33511ft 512kts
03-Dec-17 06:20 58.455156 84.252208 110 33508ft 512kts
03-Dec-17 06:21 58.399019 84.501225 110 33508ft 512kts
03-Dec-17 06:22 58.342813 84.747925 110 33508ft 513kts
03-Dec-17 06:23 58.285868 84.996269 110 33509ft 512kts
03-Dec-17 06:24 58.228454 85.242814 110 33510ft 513kts
03-Dec-17 06:25 58.170315 85.489082 110 33510ft 513kts
03-Dec-17 06:26 58.111669 85.734887 111 33510ft 513kts
03-Dec-17 06:27 58.052883 85.979794 111 33511ft 513kts
03-Dec-17 06:28 57.993508 86.223483 111 33511ft 513kts
03-Dec-17 06:29 57.933516 86.466406 111 33512ft 513kts
03-Dec-17 06:30 57.872971 86.707721 113 33504ft 513kts
03-Dec-17 06:31 57.810975 86.949227 112 33504ft 513kts
03-Dec-17 06:32 57.749388 87.190014 112 33505ft 513kts
03-Dec-17 06:33 57.687565 87.430270 112 33506ft 513kts
03-Dec-17 06:34 57.625467 87.668792 113 33506ft 514kts
03-Dec-17 06:35 57.562666 87.908228 113 33506ft 514kts
03-Dec-17 06:36 57.499412 88.146607 113 33507ft 514kts
03-Dec-17 06:37 57.435636 88.383614 113 33508ft 514kts
03-Dec-17 06:38 57.371336 88.620031 113 33509ft 514kts
03-Dec-17 06:39 57.306939 88.855422 114 33487ft 515kts
03-Dec-17 06:40 57.242012 89.090415 114 33456ft 516kts
03-Dec-17 06:41 57.176182 89.325200 114 33456ft 516kts
03-Dec-17 06:42 57.109997 89.558722 114 33457ft 516kts
03-Dec-17 06:43 57.043594 89.791399 115 33456ft 516kts
03-Dec-17 06:44 56.976887 90.023477 115 33457ft 516kts
03-Dec-17 06:45 56.909379 90.254883 115 33459ft 517kts
03-Dec-17 06:46 56.840843 90.483806 116 33451ft 517kts
03-Dec-17 06:47 56.771970 90.712076 116 33450ft 517kts
03-Dec-17 06:48 56.703398 90.941581 116 33451ft 517kts
03-Dec-17 06:49 56.634218 91.170351 116 33452ft 517kts
03-Dec-17 06:50 56.564453 91.397861 116 33453ft 518kts
03-Dec-17 06:51 56.494128 91.624946 116 33454ft 518kts
03-Dec-17 06:52 56.425018 91.847100 117 33453ft 518kts
03-Dec-17 06:53 56.354214 92.072653 117 33454ft 518kts
03-Dec-17 06:54 56.282804 92.296894 117 33455ft 518kts
03-Dec-17 06:55 56.210586 92.521385 117 33456ft 519kts
03-Dec-17 06:56 56.139082 92.742188 117 33456ft 519kts
03-Dec-17 06:57 56.066525 92.965212 118 33457ft 519kts
03-Dec-17 06:58 55.993219 93.187273 118 33458ft 519kts
03-Dec-17 06:59 55.919316 93.408612 118 33459ft 519kts
03-Dec-17 07:00 55.844896 93.627472 118 33451ft 520kts
03-Dec-17 07:01 55.770295 93.844796 118 33450ft 520kts
03-Dec-17 07:02 55.695573 94.063568 118 33451ft 520kts
03-Dec-17 07:03 55.620069 94.282372 116 33455ft 528kts
03-Dec-17 07:04 55.544671 94.498212 117 33454ft 517kts
03-Dec-17 07:05 55.469331 94.712534 118 33453ft 518kts
03-Dec-17 07:06 55.393259 94.928169 118 33454ft 518kts
03-Dec-17 07:07 55.316786 95.141948 118 33455ft 518kts
03-Dec-17 07:08 55.239961 95.354300 118 33456ft 519kts
03-Dec-17 07:09 55.162613 95.566503 118 33457ft 519kts
03-Dec-17 07:10 55.085228 95.777601 119 33457ft 520kts
03-Dec-17 07:11 55.006899 95.989851 118 33452ft 524kts
03-Dec-17 07:12 54.927895 96.200807 119 33462ft 520kts
03-Dec-17 07:13 54.848741 96.408744 119 33449ft 520kts
03-Dec-17 07:14 54.768665 96.617283 118 33451ft 520kts
03-Dec-17 07:15 54.690796 96.825388 119 33450ft 521kts
03-Dec-17 07:16 54.612731 97.035003 119 33446ft 521kts
03-Dec-17 07:17 54.533908 97.244172 119 33319ft 521kts
03-Dec-17 07:18 54.454755 97.452016 119 33319ft 521kts
03-Dec-17 07:19 54.375256 97.659039 120 33320ft 521kts
03-Dec-17 07:20 54.295026 97.867662 119 33311ft 520kts
03-Dec-17 07:21 54.214914 98.073511 119 33321ft 522kts
03-Dec-17 07:22 54.134140 98.278726 119 33323ft 523kts
03-Dec-17 07:23 54.052855 98.483528 119 33324ft 523kts
03-Dec-17 07:24 53.971609 98.686648 120 33324ft 524kts
03-Dec-17 07:25 53.890214 98.889836 120 33317ft 524kts
03-Dec-17 07:26 53.806809 99.092018 121 33314ft 525kts
03-Dec-17 07:27 53.723654 99.293238 120 33315ft 524kts
03-Dec-17 07:28 53.640098 99.495866 120 33322ft 532kts
03-Dec-17 07:29 53.557018 99.695592 121 33317ft 525kts
03-Dec-17 07:30 53.473462 99.895942 121 33318ft 526kts
03-Dec-17 07:31 53.389142 100.095700 121 33384ft 526kts
03-Dec-17 07:32 53.304275 100.294563 121 33429ft 526kts
03-Dec-17 07:33 53.218746 100.493405 121 33430ft 527kts
03-Dec-17 07:34 53.133809 100.689665 122 33430ft 527kts
03-Dec-17 07:35 53.048344 100.886766 122 33431ft 528kts
03-Dec-17 07:36 52.962058 101.083326 122 33433ft 528kts
03-Dec-17 07:37 52.875539 101.278054 122 33393ft 529kts
03-Dec-17 07:38 52.787379 101.471842 122 33396ft 529kts
03-Dec-17 07:39 52.702431 101.659759 123 33397ft 529kts
03-Dec-17 07:40 52.615047 101.854055 122 33397ft 529kts
03-Dec-17 07:41 52.526750 102.048000 123 33399ft 530kts
03-Dec-17 07:42 52.438066 102.240362 123 33400ft 530kts
03-Dec-17 07:43 52.349140 102.431840 123 33402ft 530kts
03-Dec-17 07:44 52.259886 102.622919 123 33403ft 531kts
03-Dec-17 07:45 52.170763 102.813061 123 33403ft 532kts
03-Dec-17 07:46 52.080937 103.002977 123 33405ft 532kts
03-Dec-17 07:47 51.989985 103.192641 124 33405ft 532kts
03-Dec-17 07:48 51.899269 103.380548 123 33408ft 532kts
03-Dec-17 07:49 51.809167 103.564076 124 33406ft 526kts
03-Dec-17 07:50 51.718582 103.749369 124 33395ft 533kts
03-Dec-17 07:51 51.626880 103.936746 124 33397ft 533kts
03-Dec-17 07:52 51.549994 104.090996 124 33398ft 533kts
03-Dec-17 07:53 51.441902 104.306697 124 33400ft 533kts
03-Dec-17 07:54 51.364724 104.460094 124 33402ft 532kts
03-Dec-17 07:55 51.271737 104.643596 124 33404ft 532kts
03-Dec-17 07:56 51.179251 104.825357 125 33403ft 532kts
03-Dec-17 07:57 51.085709 105.007435 126 33405ft 532kts
03-Dec-17 07:58 50.991675 105.188694 125 33407ft 532kts
03-Dec-17 07:59 50.899275 105.365880 125 33408ft 531kts
03-Dec-17 08:00 50.804729 105.542903 126 33396ft 531kts
03-Dec-17 08:01 50.710478 105.720563 126 33396ft 531kts
03-Dec-17 08:02 50.615995 105.899584 127 33400ft 539kts
03-Dec-17 08:03 50.519506 106.079484 127 33399ft 538kts
03-Dec-17 08:04 50.422822 106.257952 127 33401ft 538kts
03-Dec-17 08:05 50.326182 106.435600 127 33403ft 538kts
03-Dec-17 08:06 50.220129 106.601088 136 33405ft 541kts
03-Dec-17 08:07 50.106632 106.753657 137 33403ft 542kts
03-Dec-17 08:08 49.994640 106.909048 136 33405ft 541kts
03-Dec-17 08:09 49.883581 107.063919 136 33396ft 542kts
03-Dec-17 08:10 49.770737 107.217437 137 33383ft 542kts
03-Dec-17 08:11 49.657764 107.371177 136 33398ft 542kts
03-Dec-17 08:12 49.545242 107.524424 136 33375ft 542kts
03-Dec-17 08:13 49.432912 107.676378 137 33371ft 541kts
03-Dec-17 08:14 49.320503 107.828540 137 33373ft 541kts
03-Dec-17 08:15 49.207245 107.979973 137 33375ft 541kts
03-Dec-17 08:16 49.093968 108.129823 137 33377ft 541kts
03-Dec-17 08:17 48.980468 108.279071 137 33379ft 541kts
03-Dec-17 08:18 48.868970 108.425288 138 33368ft 541kts
03-Dec-17 08:19 48.754571 108.572792 138 33371ft 541kts
03-Dec-17 08:20 48.641135 108.719633 138 33369ft 541kts
03-Dec-17 08:21 48.527387 108.867628 138 33371ft 541kts
03-Dec-17 08:22 48.413226 109.013861 138 33373ft 541kts
03-Dec-17 08:23 48.298392 109.159646 139 33375ft 541kts
03-Dec-17 08:24 48.183638 109.304702 139 33377ft 541kts
03-Dec-17 08:25 48.068728 109.449129 139 33379ft 541kts
03-Dec-17 08:26 47.953760 109.592561 139 33381ft 541kts
03-Dec-17 08:27 47.838791 109.735413 139 33367ft 541kts
03-Dec-17 08:28 47.723106 109.878171 139 33368ft 541kts
03-Dec-17 08:29 47.607804 110.019828 140 33371ft 541kts
03-Dec-17 08:30 47.492147 110.161233 140 33373ft 541kts
03-Dec-17 08:31 47.376066 110.302321 140 33376ft 540kts
03-Dec-17 08:32 47.260123 110.442336 140 33377ft 540kts
03-Dec-17 08:33 47.144186 110.581467 140 33379ft 540kts
03-Dec-17 08:34 47.027998 110.720660 140 33376ft 540kts
03-Dec-17 08:35 46.912125 110.859459 140 33378ft 540kts
03-Dec-17 08:36 46.794909 110.996604 141 33368ft 540kts
03-Dec-17 08:37 46.677836 111.132850 141 33371ft 540kts
03-Dec-17 08:38 46.560008 111.270477 141 33382ft 557kts
03-Dec-17 08:39 46.439310 111.410640 141 33376ft 557kts
03-Dec-17 08:40 46.318516 111.549949 141 33379ft 557kts
03-Dec-17 08:41 46.199653 111.686531 142 33372ft 557kts
03-Dec-17 08:42 46.078937 111.825094 142 33376ft 553kts
03-Dec-17 08:43 45.958367 111.961584 143 33378ft 553kts
03-Dec-17 08:44 45.837431 112.096864 143 33369ft 553kts
03-Dec-17 08:45 45.716082 112.231096 143 33371ft 553kts
03-Dec-17 08:46 45.594800 112.365866 143 33367ft 551kts
03-Dec-17 08:47 45.473534 112.500122 143 33377ft 553kts
03-Dec-17 08:48 45.352540 112.633162 143 33449ft 553kts
03-Dec-17 08:49 45.231094 112.766929 144 33454ft 554kts
03-Dec-17 08:50 45.109070 112.900404 144 33456ft 554kts
03-Dec-17 08:51 44.986866 113.032292 144 33459ft 554kts
03-Dec-17 08:52 44.864936 113.163007 144 33449ft 554kts
03-Dec-17 08:53 44.741609 113.292316 146 33453ft 554kts
03-Dec-17 08:54 44.616224 113.416462 147 33459ft 553kts
03-Dec-17 08:55 44.490315 113.539951 147 33459ft 553kts
03-Dec-17 08:56 44.364912 113.663446 147 33455ft 553kts
03-Dec-17 08:57 44.240018 113.787291 147 33453ft 553kts
03-Dec-17 08:58 44.114313 113.910283 148 33456ft 553kts
03-Dec-17 08:59 43.988586 114.031845 148 33458ft 552kts
03-Dec-17 09:00 43.862660 114.152979 148 33450ft 552kts
03-Dec-17 09:01 43.736422 114.272770 148 33453ft 552kts
03-Dec-17 09:02 43.610358 114.392798 150 33463ft 550kts
03-Dec-17 09:03 43.484595 114.512287 148 33458ft 552kts
03-Dec-17 09:04 43.358450 114.631379 148 33461ft 552kts
03-Dec-17 09:05 43.232974 114.750233 149 33452ft 551kts
03-Dec-17 09:06 43.106526 114.868681 149 33455ft 551kts
03-Dec-17 09:07 42.981476 114.988550 148 33466ft 551kts
03-Dec-17 09:08 42.857118 115.108584 148 33521ft 547kts
03-Dec-17 09:09 42.731341 115.227236 148 33534ft 551kts
03-Dec-17 09:10 42.606214 115.345536 148 33537ft 551kts
03-Dec-17 09:11 42.480710 115.464146 148 33540ft 551kts
03-Dec-17 09:12 42.356098 115.581436 151 33543ft 541kts
03-Dec-17 09:13 42.232718 115.696811 152 33530ft 541kts
03-Dec-17 09:14 42.109203 115.812900 152 33530ft 541kts
03-Dec-17 09:15 41.985687 115.926921 152 33535ft 541kts
03-Dec-17 09:16 41.863602 116.040610 151 33533ft 542kts
03-Dec-17 09:17 41.740720 116.155780 151 33535ft 542kts
03-Dec-17 09:18 41.617016 116.271074 151 33538ft 542kts
03-Dec-17 09:19 41.493627 116.385780 151 33540ft 542kts
03-Dec-17 09:20 41.370332 116.499910 151 33542ft 543kts
03-Dec-17 09:21 41.246683 116.614167 149 33542ft 544kts
03-Dec-17 09:22 41.137402 116.753992 135 33532ft 556kts
03-Dec-17 09:23 41.037363 116.909162 136 33534ft 555kts
03-Dec-17 09:24 40.933069 117.058738 138 33537ft 554kts
03-Dec-17 09:25 40.829728 117.202062 138 33536ft 554kts
03-Dec-17 09:26 40.724239 117.349367 137 33538ft 554kts
03-Dec-17 09:27 40.619401 117.497704 137 33541ft 554kts
03-Dec-17 09:28 40.514787 117.646105 137 33544ft 555kts
03-Dec-17 09:29 40.411446 117.794032 137 33531ft 554kts
03-Dec-17 09:30 40.306655 117.942701 138 33534ft 554kts
03-Dec-17 09:31 40.201879 118.089515 138 33536ft 554kts
03-Dec-17 09:32 40.097462 118.235248 138 33512ft 541kts
03-Dec-17 09:33 39.994192 118.378871 138 33515ft 543kts
03-Dec-17 09:34 39.891180 118.521203 138 33516ft 543kts
03-Dec-17 09:35 39.787231 118.662930 139 33509ft 543kts
03-Dec-17 09:36 39.666578 118.767135 170 33507ft 510kts
03-Dec-17 09:37 39.530840 118.808634 177 33512ft 504kts
03-Dec-17 09:38 39.395472 118.851640 173 33505ft 506kts
03-Dec-17 09:39 39.260628 118.901740 173 33506ft 506kts
03-Dec-17 09:40 39.125275 118.950623 173 33507ft 505kts
03-Dec-17 09:41 38.990312 118.997350 174 33509ft 505kts
03-Dec-17 09:42 38.856323 119.050556 156 33510ft 525kts
03-Dec-17 09:43 38.766515 119.201017 107 33519ft 559kts
03-Dec-17 09:44 38.743504 119.397320 95 33513ft 560kts
03-Dec-17 09:45 38.719935 119.594281 101 33436ft 560kts
03-Dec-17 09:46 38.686220 119.787934 103 33421ft 560kts
03-Dec-17 09:47 38.653872 119.982356 102 33425ft 561kts
03-Dec-17 09:48 38.622540 120.177606 102 33428ft 561kts
03-Dec-17 09:49 38.590794 120.372999 102 33458ft 561kts
03-Dec-17 09:50 38.558893 120.567900 102 33463ft 562kts
03-Dec-17 09:51 38.527164 120.762248 102 33449ft 562kts
03-Dec-17 09:52 38.495325 120.956823 102 33452ft 562kts
03-Dec-17 09:53 38.462822 121.151494 102 33455ft 562kts
03-Dec-17 09:54 38.431181 121.347021 102 33459ft 563kts
03-Dec-17 09:55 38.399666 121.542006 102 33462ft 563kts
03-Dec-17 09:56 38.367327 121.733512 103 33449ft 562kts
03-Dec-17 09:57 38.334359 121.927876 103 33452ft 563kts
03-Dec-17 09:58 38.300979 122.122359 103 33455ft 563kts
03-Dec-17 09:59 38.268103 122.316993 101 33459ft 564kts
03-Dec-17 10:00 38.220652 122.503644 128 33467ft 552kts
03-Dec-17 10:01 38.116991 122.640991 146 33466ft 536kts
03-Dec-17 10:02 38.007411 122.767738 142 33450ft 539kts
03-Dec-17 10:03 37.902236 122.903959 140 33452ft 542kts
03-Dec-17 10:04 37.797394 123.039200 141 33453ft 541kts
03-Dec-17 10:05 37.708973 123.151526 141 33455ft 541kts
03-Dec-17 10:06 37.603449 123.286115 141 33458ft 540kts
03-Dec-17 10:07 37.488824 123.455039 131 33462ft 550kts
03-Dec-17 10:08 37.400318 123.610838 131 33464ft 550kts
03-Dec-17 10:09 37.324950 123.738904 132 33241ft 549kts
03-Dec-17 10:10 37.232970 123.891289 133 33235ft 549kts
03-Dec-17 10:11 37.160319 124.059709 101 33244ft 566kts
03-Dec-17 10:12 37.149031 124.255935 96 33242ft 561kts
03-Dec-17 10:13 37.138781 124.472444 100 33242ft 531kts
03-Dec-17 10:14 37.138400 124.627333 91 31752ft 538kts
03-Dec-17 10:15 37.140470 124.660968 91 31336ft 535kts
03-Dec-17 10:16 37.144144 124.715310 90 30647ft 531kts
03-Dec-17 10:17 37.152873 124.899192 93 28360ft 531kts
03-Dec-17 10:18 37.155309 125.028125 94 26754ft 524kts
03-Dec-17 10:19 37.155309 125.028125 94 26754ft 524kts
03-Dec-17 10:20 37.156389 125.094352 94 25924ft 518kts
03-Dec-17 10:21 37.162333 125.420754 94 21862ft 484kts
03-Dec-17 10:22 37.164484 125.739380 95 17863ft 448kts
03-Dec-17 10:23 37.163818 126.018170 92 14381ft 434kts
03-Dec-17 10:24 37.167681 126.274298 90 11191ft 392kts
03-Dec-17 10:25 37.169517 126.415885 86 10350ft 339kts
03-Dec-17 10:26 37.170933 126.527809 85 9374ft 308kts
03-Dec-17 10:27 37.188602 126.625752 34 7401ft 300kts
03-Dec-17 10:28 37.262538 126.608837 313 5315ft 300kts
03-Dec-17 10:29 37.321611 126.550225 324 3439ft 235kts
03-Dec-17 10:30 37.369496 126.507194 325 1869ft 193kts
03-Dec-17 10:31 37.406273 126.474593 325 903ft 139kts
03-Dec-17 10:32 37.438940 126.445772 325 229ft 148kts
03-Dec-17 10:33 37.457816 126.428973 323 15ft 0kts

Navigation Log

Ident Type
Flight plan parsing failed, navigation log unavailable